createdAt,value
2018-02-21T00:02:21.467Z,76.73
2018-02-21T00:04:48.936Z,72.23
2018-02-21T00:07:16.686Z,72.43
2018-02-21T00:09:44.589Z,73.43
2018-02-21T00:12:12.998Z,78.70
2018-02-21T00:14:40.462Z,75.07
2018-02-21T00:17:08.681Z,79.47
2018-02-21T00:19:37.733Z,76.13
2018-02-21T00:22:05.642Z,77.80
2018-02-21T00:24:33.088Z,82.43
2018-02-21T00:27:00.538Z,84.97
2018-02-21T00:29:28.538Z,88.10
2018-02-21T00:31:56.776Z,91.23
2018-02-21T00:34:24.631Z,80.90
2018-02-21T00:36:52.546Z,88.73
2018-02-21T00:39:21.173Z,83.27
2018-02-21T00:41:48.630Z,81.37
2018-02-21T00:44:16.098Z,86.33
2018-02-21T00:46:45.069Z,86.80
2018-02-21T00:49:12.546Z,99.33
2018-02-21T00:51:40.023Z,90.90
2018-02-21T00:54:07.557Z,91.17
2018-02-21T00:56:35.118Z,95.57
2018-02-21T00:59:02.578Z,94.67
2018-02-21T01:01:30.132Z,96.20
2018-02-21T01:03:57.586Z,91.00
2018-02-21T01:06:25.581Z,94.50
2018-02-21T01:08:53.061Z,83.13
2018-02-21T01:11:21.273Z,90.63
2018-02-21T01:13:48.811Z,101.33
2018-02-21T01:16:16.274Z,101.67
2018-02-21T01:18:43.746Z,90.50
2018-02-21T01:21:11.197Z,93.67
2018-02-21T01:23:38.649Z,92.87
2018-02-21T01:26:06.118Z,90.53
2018-02-21T01:28:33.572Z,92.33
2018-02-21T01:31:01.038Z,87.03
2018-02-21T01:33:28.485Z,93.13
2018-02-21T01:35:55.945Z,85.03
2018-02-21T01:38:24.674Z,92.43
2018-02-21T01:40:53.032Z,93.97
2018-02-21T01:43:20.480Z,86.63
2018-02-21T01:45:48.706Z,85.47
2018-02-21T01:48:16.797Z,88.60
2018-02-21T01:50:52.052Z,82.67
2018-02-21T01:53:19.501Z,77.90
2018-02-21T01:55:46.954Z,81.70
2018-02-21T01:58:14.429Z,88.40
2018-02-21T02:00:41.878Z,79.83
2018-02-21T02:03:09.712Z,78.90
2018-02-21T02:05:37.170Z,82.17
2018-02-21T02:08:04.630Z,83.40
2018-02-21T02:10:32.081Z,92.23
2018-02-21T02:12:59.541Z,81.73
2018-02-21T02:15:26.994Z,78.53
2018-02-21T02:17:54.454Z,71.27
2018-02-21T02:20:22.334Z,74.57
2018-02-21T02:22:50.809Z,81.90
2018-02-21T02:25:18.692Z,89.13
2018-02-21T02:27:46.138Z,75.90
2018-02-21T02:30:13.594Z,75.83
2018-02-21T02:32:41.685Z,79.10
2018-02-21T02:35:09.142Z,75.50
2018-02-21T02:37:36.592Z,75.53
2018-02-21T02:40:04.047Z,83.60
2018-02-21T02:42:31.518Z,73.87
2018-02-21T02:44:58.977Z,76.83
2018-02-21T02:47:26.973Z,82.90
2018-02-21T02:49:54.434Z,84.17
2018-02-21T02:52:21.888Z,82.40
2018-02-21T02:54:49.619Z,89.73
2018-02-21T02:57:17.510Z,90.20
2018-02-21T02:59:45.728Z,93.63
2018-02-21T03:02:13.617Z,91.50
2018-02-21T03:04:41.062Z,88.43
2018-02-21T03:07:08.517Z,95.73
2018-02-21T03:09:36.517Z,91.07
2018-02-21T03:12:04.856Z,98.73
2018-02-21T03:14:32.314Z,97.10
2018-02-21T03:16:59.772Z,91.93
2018-02-21T03:19:28.470Z,94.23
2018-02-21T03:21:55.925Z,95.43
2018-02-21T03:24:23.377Z,99.67
2018-02-21T03:26:50.842Z,104.50
2018-02-21T03:29:18.293Z,104.50
2018-02-21T03:31:45.742Z,95.20
2018-02-21T03:34:13.197Z,103.70
2018-02-21T03:36:41.393Z,106.53
2018-02-21T03:39:08.851Z,98.73
2018-02-21T03:41:36.301Z,100.43
2018-02-21T03:44:03.757Z,105.53
2018-02-21T03:46:31.212Z,97.07
2018-02-21T03:49:01.028Z,105.33
2018-02-21T03:51:28.475Z,96.23
2018-02-21T03:53:55.934Z,100.03
2018-02-21T03:56:23.393Z,104.50
2018-02-21T03:58:50.842Z,95.83
2018-02-21T04:01:18.302Z,102.70
2018-02-21T04:03:46.331Z,104.20
2018-02-21T04:06:14.421Z,98.70
2018-02-21T04:08:42.305Z,98.00
2018-02-21T04:11:09.757Z,93.13
2018-02-21T04:13:37.585Z,96.23
2018-02-21T04:16:05.029Z,95.93
2018-02-21T04:18:32.480Z,95.17
2018-02-21T04:21:00.814Z,94.13
2018-02-21T04:23:28.261Z,93.43
2018-02-21T04:25:55.718Z,93.77
2018-02-21T04:28:23.180Z,91.60
2018-02-21T04:30:50.640Z,94.07
2018-02-21T04:33:18.918Z,94.87
2018-02-21T04:35:46.371Z,90.80
2018-02-21T04:38:20.462Z,87.43
2018-02-21T04:40:47.917Z,94.77
2018-02-21T04:43:15.390Z,93.10
2018-02-21T04:45:43.544Z,89.60
2018-02-21T04:48:10.998Z,88.30
2018-02-21T04:50:38.462Z,85.80
2018-02-21T04:53:05.921Z,92.27
2018-02-21T04:55:39.190Z,94.13
2018-02-21T04:58:09.217Z,90.50
2018-02-21T05:00:36.694Z,83.63
2018-02-21T05:03:04.186Z,89.83
2018-02-21T05:05:31.630Z,92.80
2018-02-21T05:07:59.855Z,89.80
2018-02-21T05:10:27.313Z,87.90
2018-02-21T05:12:54.801Z,89.40
2018-02-21T05:15:22.259Z,93.83
2018-02-21T05:17:49.989Z,88.90
2018-02-21T05:20:17.754Z,90.60
2018-02-21T05:22:45.244Z,91.53
2018-02-21T05:25:13.085Z,92.20
2018-02-21T05:27:40.549Z,87.90
2018-02-21T05:30:08.005Z,99.93
2018-02-21T05:32:35.468Z,94.77
2018-02-21T05:35:02.925Z,94.60
2018-02-21T05:37:30.379Z,98.47
2018-02-21T05:39:57.944Z,97.67
2018-02-21T05:42:25.401Z,94.63
2018-02-21T05:44:53.663Z,95.33
2018-02-21T05:47:21.121Z,90.80
2018-02-21T05:49:48.568Z,91.43
2018-02-21T05:52:16.030Z,93.90
2018-02-21T05:54:44.681Z,90.27
2018-02-21T05:57:12.137Z,93.47
2018-02-21T05:59:39.599Z,97.17
2018-02-21T06:02:07.037Z,94.67
2018-02-21T06:04:35.250Z,103.83
2018-02-21T06:07:02.704Z,95.70
2018-02-21T06:09:30.167Z,96.53
2018-02-21T06:11:57.706Z,94.30
2018-02-21T06:14:25.169Z,98.17
2018-02-21T06:16:53.045Z,103.93
2018-02-21T06:19:20.502Z,97.73
2018-02-21T06:21:47.957Z,102.57
2018-02-21T06:24:15.686Z,104.27
2018-02-21T06:26:43.912Z,105.37
2018-02-21T06:29:11.389Z,99.90
2018-02-21T06:31:39.265Z,100.07
2018-02-21T06:34:07.938Z,102.07
2018-02-21T06:36:36.408Z,98.73
2018-02-21T06:39:03.866Z,106.17
2018-02-21T06:41:32.118Z,100.90
2018-02-21T06:43:59.564Z,100.00
2018-02-21T06:46:27.088Z,99.00
2018-02-21T06:48:54.549Z,109.40
2018-02-21T06:51:22.654Z,105.87
2018-02-21T06:53:50.682Z,104.10
2018-02-21T06:56:18.137Z,99.63
2018-02-21T06:58:46.626Z,96.47
2018-02-21T07:01:14.839Z,97.20
2018-02-21T07:03:42.297Z,91.03
2018-02-21T07:06:09.757Z,98.03
2018-02-21T07:08:37.217Z,105.67
2018-02-21T07:11:04.680Z,107.97
2018-02-21T07:13:32.133Z,94.07
2018-02-21T07:15:59.605Z,98.17
2018-02-21T07:18:27.149Z,90.90
2018-02-21T07:20:54.605Z,100.67
2018-02-21T07:23:22.620Z,108.03
2018-02-21T07:25:50.077Z,99.27
2018-02-21T07:28:17.951Z,96.93
2018-02-21T07:30:45.407Z,91.50
2018-02-21T07:33:12.910Z,84.97
2018-02-21T07:35:40.367Z,83.33
2018-02-21T07:38:09.757Z,81.93
2018-02-21T07:40:37.922Z,85.27
2018-02-21T07:43:05.993Z,80.43
2018-02-21T07:45:34.003Z,78.60
2018-02-21T07:48:02.638Z,82.40
2018-02-21T07:50:31.233Z,79.37
2018-02-21T07:52:58.699Z,77.20
2018-02-21T07:55:26.150Z,75.17
2018-02-21T07:57:54.401Z,75.03
2018-02-21T08:00:21.841Z,72.60
2018-02-21T08:02:51.016Z,72.77
2018-02-21T08:05:19.231Z,72.70
2018-02-21T08:07:53.201Z,70.47
2018-02-21T08:10:21.433Z,67.03
2018-02-21T08:12:48.885Z,69.97
2018-02-21T08:15:16.353Z,67.83
2018-02-21T08:17:45.741Z,65.13
2018-02-21T08:20:13.695Z,67.43
2018-02-21T08:22:41.149Z,67.40
2018-02-21T08:25:09.450Z,64.83
2018-02-21T08:27:36.893Z,63.70
2018-02-21T08:30:05.106Z,68.67
2018-02-21T08:32:34.057Z,68.47
2018-02-21T08:35:01.518Z,66.57
2018-02-21T08:37:28.974Z,62.10
2018-02-21T08:39:56.444Z,62.93
2018-02-21T08:42:23.889Z,68.73
2018-02-21T08:44:51.880Z,65.67
2018-02-21T08:47:19.349Z,63.00
2018-02-21T08:49:47.565Z,71.33
2018-02-21T08:52:15.017Z,64.83
2018-02-21T08:54:42.477Z,62.63
2018-02-21T08:57:09.970Z,68.23
2018-02-21T08:59:38.196Z,64.53
2018-02-21T09:02:05.708Z,62.97
2018-02-21T09:04:39.686Z,65.53
2018-02-21T09:07:07.134Z,85.33
2018-02-21T09:09:35.418Z,75.73
2018-02-21T09:12:02.891Z,70.57
2018-02-21T09:14:30.336Z,64.17
2018-02-21T09:16:57.786Z,74.73
2018-02-21T09:19:25.250Z,59.50
2018-02-21T09:21:53.728Z,63.20
2018-02-21T09:24:21.193Z,58.27
2018-02-21T09:26:49.445Z,59.53
2018-02-21T09:29:17.183Z,58.60
2018-02-21T09:31:45.419Z,59.10
2018-02-21T09:34:12.869Z,65.33
2018-02-21T09:36:41.061Z,56.67
2018-02-21T09:39:08.501Z,55.63
2018-02-21T09:41:36.384Z,60.93
2018-02-21T09:44:03.839Z,57.90
2018-02-21T09:46:31.377Z,65.57
2018-02-21T09:48:58.829Z,60.13
2018-02-21T09:51:26.503Z,56.40
2018-02-21T09:53:53.957Z,56.70
2018-02-21T09:56:21.417Z,59.63
2018-02-21T09:58:48.978Z,60.93
2018-02-21T10:01:16.443Z,60.83
2018-02-21T10:03:43.881Z,51.93
2018-02-21T10:06:11.334Z,54.97
2018-02-21T10:08:41.360Z,48.90
2018-02-21T10:11:08.825Z,46.63
2018-02-21T10:13:36.275Z,50.23
2018-02-21T10:16:03.722Z,50.00
2018-02-21T10:18:31.189Z,46.97
2018-02-21T10:21:00.238Z,51.60
2018-02-21T10:23:28.077Z,54.83
2018-02-21T10:25:56.637Z,46.83
2018-02-21T10:28:24.094Z,48.77
2018-02-21T10:30:51.549Z,48.50
2018-02-21T10:33:19.004Z,47.77
2018-02-21T10:35:46.453Z,49.13
2018-02-21T10:38:13.903Z,50.23
2018-02-21T10:40:41.938Z,49.50
2018-02-21T10:43:10.134Z,47.33
2018-02-21T10:45:37.594Z,48.37
2018-02-21T10:48:05.039Z,50.63
2018-02-21T10:50:32.489Z,51.00
2018-02-21T10:53:00.398Z,46.17
2018-02-21T10:55:28.626Z,51.07
2018-02-21T10:57:56.098Z,48.13
2018-02-21T11:00:29.777Z,47.00
2018-02-21T11:02:57.238Z,46.37
2018-02-21T11:05:24.691Z,43.00
2018-02-21T11:07:52.178Z,43.87
2018-02-21T11:10:19.734Z,51.77
2018-02-21T11:12:47.190Z,50.10
2018-02-21T11:15:15.909Z,45.97
2018-02-21T11:17:44.158Z,44.07
2018-02-21T11:20:11.613Z,46.13
2018-02-21T11:22:39.166Z,49.43
2018-02-21T11:25:07.235Z,42.63
2018-02-21T11:27:35.123Z,44.13
2018-02-21T11:30:02.592Z,42.27
2018-02-21T11:32:30.815Z,45.53
2018-02-21T11:35:02.613Z,43.10
2018-02-21T11:37:30.504Z,43.60
2018-02-21T11:39:57.961Z,42.37
2018-02-21T11:42:25.410Z,42.53
2018-02-21T11:44:54.096Z,39.53
2018-02-21T11:47:23.705Z,39.07
2018-02-21T11:49:51.926Z,39.77
2018-02-21T11:52:19.379Z,44.50
2018-02-21T11:54:46.841Z,38.10
2018-02-21T11:57:14.738Z,42.47
2018-02-21T11:59:42.202Z,45.27
2018-02-21T12:02:10.417Z,41.10
2018-02-21T12:04:40.348Z,45.03
2018-02-21T12:07:07.810Z,39.33
2018-02-21T12:09:35.265Z,40.20
2018-02-21T12:12:02.720Z,46.80
2018-02-21T12:14:31.846Z,48.00
2018-02-21T12:16:59.885Z,45.63
2018-02-21T12:19:27.337Z,41.90
2018-02-21T12:21:54.794Z,41.73
2018-02-21T12:24:23.026Z,42.43
2018-02-21T12:26:50.481Z,41.63
2018-02-21T12:29:18.702Z,40.17
2018-02-21T12:31:49.761Z,41.80
2018-02-21T12:34:17.259Z,41.93
2018-02-21T12:36:44.709Z,39.67
2018-02-21T12:39:18.386Z,42.73
2018-02-21T12:41:45.833Z,39.33
2018-02-21T12:44:13.288Z,39.20
2018-02-21T12:46:41.328Z,37.97
2018-02-21T12:49:09.354Z,41.97
2018-02-21T12:51:37.581Z,41.03
2018-02-21T12:54:05.043Z,41.20
2018-02-21T12:56:32.513Z,38.30
2018-02-21T12:58:59.965Z,41.57
2018-02-21T13:01:27.807Z,39.93
2018-02-21T13:03:56.518Z,39.00
2018-02-21T13:06:24.486Z,38.03
2018-02-21T13:08:52.365Z,35.10
2018-02-21T13:11:19.916Z,41.47
2018-02-21T13:13:48.533Z,37.67
2018-02-21T13:16:17.270Z,36.20
2018-02-21T13:18:44.746Z,35.17
2018-02-21T13:21:14.748Z,33.17
2018-02-21T13:23:42.201Z,35.17
2018-02-21T13:26:09.914Z,34.77
2018-02-21T13:28:38.126Z,38.03
2018-02-21T13:31:05.585Z,37.30
2018-02-21T13:33:33.057Z,34.87
2018-02-21T13:36:00.612Z,34.67
2018-02-21T13:38:28.570Z,32.27
2018-02-21T13:40:56.185Z,32.93
2018-02-21T13:43:24.402Z,31.53
2018-02-21T13:45:52.301Z,33.47
2018-02-21T13:48:19.754Z,33.30
2018-02-21T13:50:47.295Z,35.57
2018-02-21T13:53:14.741Z,31.73
2018-02-21T13:55:42.224Z,32.80
2018-02-21T13:58:09.765Z,31.20
2018-02-21T14:00:37.660Z,34.80
2018-02-21T14:03:06.306Z,30.20
2018-02-21T14:05:33.758Z,36.00
2018-02-21T14:08:01.840Z,36.00
2018-02-21T14:10:29.305Z,30.67
2018-02-21T14:12:57.530Z,30.67
2018-02-21T14:15:25.413Z,33.70
2018-02-21T14:17:53.340Z,29.97
2018-02-21T14:20:21.557Z,32.17
2018-02-21T14:22:49.009Z,30.43
2018-02-21T14:25:16.502Z,29.60
2018-02-21T14:27:44.362Z,31.17
2018-02-21T14:30:13.307Z,29.17
2018-02-21T14:32:40.769Z,27.83
2018-02-21T14:35:08.221Z,31.00
2018-02-21T14:37:36.249Z,28.77
2018-02-21T14:40:03.718Z,29.47
2018-02-21T14:42:32.664Z,26.30
2018-02-21T14:45:00.234Z,28.67
2018-02-21T14:47:27.799Z,30.37
2018-02-21T14:49:56.009Z,30.63
2018-02-21T14:52:24.700Z,31.80
2018-02-21T14:54:53.485Z,32.43
2018-02-21T14:57:22.267Z,32.67
2018-02-21T14:59:50.481Z,33.30
2018-02-21T15:02:17.948Z,30.40
2018-02-21T15:04:45.762Z,30.77
2018-02-21T15:07:14.402Z,31.07
2018-02-21T15:09:43.094Z,31.93
2018-02-21T15:12:10.961Z,33.33
2018-02-21T15:14:38.421Z,29.33
2018-02-21T15:17:06.072Z,29.43
2018-02-21T15:19:33.549Z,35.43
2018-02-21T15:22:01.100Z,32.20
2018-02-21T15:24:28.546Z,31.20
2018-02-21T15:26:56.005Z,31.63
2018-02-21T15:29:23.461Z,35.07
2018-02-21T15:34:29.372Z,25.90
2018-02-21T15:36:57.608Z,31.20
2018-02-21T15:39:25.053Z,29.63
2018-02-21T15:41:52.966Z,26.60
2018-02-21T15:44:21.193Z,25.97
2018-02-21T15:46:49.410Z,30.60
2018-02-21T15:49:17.628Z,29.23
2018-02-21T15:51:45.092Z,34.57
2018-02-21T15:54:12.548Z,31.10
2018-02-21T15:56:40.006Z,35.67
2018-02-21T15:59:07.464Z,29.03
2018-02-21T16:01:34.919Z,25.90
2018-02-21T16:04:02.362Z,43.77
2018-02-21T16:06:32.941Z,30.97
2018-02-21T16:09:00.821Z,34.93
2018-02-21T16:11:29.473Z,30.30
2018-02-21T16:13:56.975Z,30.50
2018-02-21T16:16:24.396Z,38.27
2018-02-21T16:18:51.850Z,29.63
2018-02-21T16:21:19.297Z,32.47
2018-02-21T16:23:46.770Z,31.63
2018-02-21T16:26:14.217Z,29.43
2018-02-21T16:28:41.677Z,33.87
2018-02-21T16:31:09.139Z,30.93
2018-02-21T16:33:37.338Z,27.50
2018-02-21T16:36:05.774Z,32.10
2018-02-21T16:38:33.229Z,27.13
2018-02-21T16:41:00.689Z,28.73
2018-02-21T16:43:28.358Z,28.27
2018-02-21T16:45:55.809Z,26.53
2018-02-21T16:48:23.261Z,25.03
2018-02-21T16:50:50.777Z,32.67
2018-02-21T16:53:18.217Z,26.70
2018-02-21T16:55:46.497Z,28.03
2018-02-21T16:58:15.141Z,26.13
2018-02-21T17:00:42.597Z,23.57
2018-02-21T17:03:10.456Z,23.20
2018-02-21T17:05:37.917Z,23.60
2018-02-21T17:08:05.369Z,21.40
2018-02-21T17:10:33.358Z,24.87
2018-02-21T17:13:01.595Z,22.67
2018-02-21T17:15:29.050Z,24.03
2018-02-21T17:17:57.044Z,25.97
2018-02-21T17:20:24.550Z,25.87
2018-02-21T17:22:53.653Z,24.80
2018-02-21T17:25:21.106Z,26.37
2018-02-21T17:27:48.668Z,24.47
2018-02-21T17:30:19.480Z,26.17
2018-02-21T17:32:46.932Z,23.33
2018-02-21T17:35:15.145Z,26.80
2018-02-21T17:37:42.606Z,40.47
2018-02-21T17:40:10.842Z,41.00
2018-02-21T17:42:38.297Z,46.80
2018-02-21T17:45:05.966Z,39.37
2018-02-21T17:47:33.425Z,38.20
2018-02-21T17:50:00.887Z,29.90
2018-02-21T17:52:28.340Z,32.43
2018-02-21T17:54:55.807Z,32.47
2018-02-21T17:57:23.266Z,30.70
2018-02-21T17:59:51.405Z,29.83
2018-02-21T18:02:18.887Z,28.03
2018-02-21T18:04:46.469Z,31.70
2018-02-21T18:07:16.362Z,27.47
2018-02-21T18:09:44.359Z,27.33
2018-02-21T18:12:11.804Z,27.17
2018-02-21T18:14:39.256Z,25.37
2018-02-21T18:17:07.350Z,27.73
2018-02-21T18:19:37.373Z,26.83
2018-02-21T18:22:04.821Z,29.53
2018-02-21T18:24:32.276Z,26.47
2018-02-21T18:26:59.730Z,27.10
2018-02-21T18:29:28.509Z,30.23
2018-02-21T18:31:55.965Z,28.50
2018-02-21T18:34:23.674Z,29.03
2018-02-21T18:36:53.166Z,31.40
2018-02-21T18:39:21.130Z,28.27
2018-02-21T18:41:49.021Z,31.20
2018-02-21T18:44:16.469Z,32.83
2018-02-21T18:46:45.118Z,31.17
2018-02-21T18:49:12.577Z,32.10
2018-02-21T18:51:40.034Z,35.47
2018-02-21T18:54:07.490Z,33.37
2018-02-21T18:56:35.722Z,36.37
2018-02-21T18:59:03.195Z,34.47
2018-02-21T19:01:33.233Z,34.50
2018-02-21T19:04:00.681Z,36.63
2018-02-21T19:06:29.002Z,37.33
2018-02-21T19:08:57.758Z,38.50
2018-02-21T19:11:25.201Z,36.53
2018-02-21T19:13:52.662Z,37.17
2018-02-21T19:16:20.227Z,35.70
2018-02-21T19:18:47.690Z,39.40
2018-02-21T19:21:15.919Z,39.47
2018-02-21T19:23:43.381Z,39.53
2018-02-21T19:26:10.829Z,42.77
2018-02-21T19:28:38.285Z,44.97
2018-02-21T19:31:06.271Z,42.23
2018-02-21T19:33:33.742Z,44.03
2018-02-21T19:36:01.766Z,45.13
2018-02-21T19:38:29.226Z,45.47
2018-02-21T19:40:56.734Z,50.17
2018-02-21T19:43:24.194Z,49.50
2018-02-21T19:45:52.433Z,53.43
2018-02-21T19:48:20.584Z,50.43
2018-02-21T19:50:48.053Z,50.87
2018-02-21T19:53:15.544Z,46.47
2018-02-21T19:55:43.101Z,47.03
2018-02-21T19:58:11.004Z,49.20
2018-02-21T20:00:39.225Z,51.17
2018-02-21T20:03:09.148Z,48.70
2018-02-21T20:05:36.609Z,49.57
2018-02-21T20:08:04.070Z,49.03
2018-02-21T20:10:33.974Z,50.40
2018-02-21T20:13:01.434Z,48.27
2018-02-21T20:15:28.893Z,48.47
2018-02-21T20:17:56.354Z,55.73
2018-02-21T20:20:23.954Z,51.03
2018-02-21T20:22:52.177Z,50.03
2018-02-21T20:25:19.643Z,53.87
2018-02-21T20:27:47.098Z,49.97
2018-02-21T20:30:14.572Z,50.40
2018-02-21T20:32:42.029Z,50.70
2018-02-21T20:35:09.488Z,52.17
2018-02-21T20:37:36.945Z,51.03
2018-02-21T20:40:04.829Z,55.97
2018-02-21T20:42:33.050Z,51.07
2018-02-21T20:45:00.543Z,53.20
2018-02-21T20:47:28.970Z,59.43
2018-02-21T20:49:56.566Z,57.47
2018-02-21T20:52:24.021Z,53.23
2018-02-21T20:54:51.481Z,63.00
2018-02-21T20:57:19.033Z,59.63
2018-02-21T20:59:46.596Z,62.60
2018-02-21T21:02:14.062Z,62.60
2018-02-21T21:04:42.294Z,54.90
2018-02-21T21:07:09.996Z,53.83
2018-02-21T21:09:37.451Z,54.00
2018-02-21T21:12:09.541Z,51.90
2018-02-21T21:14:38.186Z,54.53
2018-02-21T21:17:05.642Z,54.07
2018-02-21T21:19:33.094Z,53.33
2018-02-21T21:22:02.725Z,53.87
2018-02-21T21:24:30.954Z,51.10
2018-02-21T21:26:58.414Z,53.17
2018-02-21T21:29:25.907Z,55.23
2018-02-21T21:31:53.556Z,54.17
2018-02-21T21:34:21.287Z,55.13
2018-02-21T21:36:48.746Z,53.73
2018-02-21T21:39:16.203Z,55.73
2018-02-21T21:41:43.665Z,56.47
2018-02-21T21:44:11.122Z,56.37
2018-02-21T21:46:39.149Z,54.03
2018-02-21T21:49:07.377Z,49.37
2018-02-21T21:51:35.314Z,52.63
2018-02-21T21:54:02.808Z,49.37
2018-02-21T21:56:30.308Z,50.70
2018-02-21T21:58:57.755Z,54.53
2018-02-21T22:01:26.524Z,50.67
2018-02-21T22:03:54.080Z,52.57
2018-02-21T22:06:24.093Z,47.03
2018-02-21T22:08:51.547Z,48.17
2018-02-21T22:11:19.705Z,49.13
2018-02-21T22:13:47.462Z,46.27
2018-02-21T22:16:14.924Z,48.93
2018-02-21T22:18:42.377Z,51.03
2018-02-21T22:21:09.864Z,47.33
2018-02-21T22:23:38.086Z,53.33
2018-02-21T22:26:05.577Z,50.93
2018-02-21T22:28:33.135Z,49.07
2018-02-21T22:31:01.047Z,51.20
2018-02-21T22:33:28.943Z,48.07
2018-02-21T22:35:56.429Z,45.97
2018-02-21T22:38:23.893Z,50.00
2018-02-21T22:40:52.120Z,46.27
2018-02-21T22:43:19.580Z,48.37
2018-02-21T22:45:47.462Z,50.70
2018-02-21T22:48:14.932Z,46.77
2018-02-21T22:50:42.801Z,47.40
2018-02-21T22:53:10.265Z,52.33
2018-02-21T22:55:37.813Z,47.00
2018-02-21T22:58:05.276Z,47.77
2018-02-21T23:00:33.297Z,49.47
2018-02-21T23:03:00.770Z,51.63
2018-02-21T23:05:29.403Z,49.63
2018-02-21T23:07:59.226Z,50.90
2018-02-21T23:10:27.447Z,50.53
2018-02-21T23:12:54.906Z,50.10
2018-02-21T23:15:22.370Z,47.53
2018-02-21T23:17:49.825Z,55.13
2018-02-21T23:20:19.122Z,51.33
2018-02-21T23:22:46.582Z,52.17
2018-02-21T23:25:14.048Z,53.80
2018-02-21T23:27:41.945Z,52.90
2018-02-21T23:30:10.174Z,51.33
2018-02-21T23:32:37.636Z,47.93
2018-02-21T23:35:05.789Z,53.77
2018-02-21T23:37:33.258Z,51.30
2018-02-21T23:40:00.713Z,50.80
2018-02-21T23:42:28.670Z,50.47
2018-02-21T23:44:56.129Z,48.73
2018-02-21T23:47:23.589Z,47.30
2018-02-21T23:49:51.044Z,53.53
2018-02-21T23:52:18.926Z,48.17
2018-02-21T23:54:46.378Z,47.90
2018-02-21T23:57:13.883Z,54.70
2018-02-21T23:59:42.805Z,51.63
